Pioche, Nevada Weather observations

Data are for observation ending at time listed.
 Day   Time    Ave.   Ave.  Ave.  Vector   Max.   Stn.    Total    Solar   Ave.  
  of    of     Air    Rel.  Wind   Wind    Wind   Baro.  Precip.   Rad.    Soil  
Year   Day     Temp.  Hum.  Speed  Dir.    Gust   Pres.                    Temp. 
2023   (PST)    F      %     mph   deg.    mph     mb.     in.     W/m2     F   
------------------------------------------------------------------------------
  37   22:10   23.9    78    4.2   267      7.0   826.1    0.00       0    33.5
  37   22:20   24.6    77    5.3   271      9.1   826.1    0.00       0    33.5
  37   22:30   25.3    74    6.9   283     10.4   826.2    0.00       0    33.5
  37   22:40   24.8    74    4.5   286      7.8   826.2    0.00       0    33.4
  37   22:50   24.6    74    6.1   274     10.2   826.2    0.00       0    33.5
  37   23:00   25.0    72    6.6   272     11.3   826.3    0.00       0    33.4
  37   23:10   25.1    71    5.9   275      9.3   826.3    0.00       0    33.4
  37   23:20   24.8    72    7.1   275     11.0   826.3    0.00       0    33.4
  37   23:30   25.0    72    7.0   272     11.6   826.4    0.00       0    33.4
  37   23:40   24.8    72    7.6   274     11.5   826.4    0.00       0    33.5
  37   23:50   24.7    72    6.9   273     11.7   826.4    0.00       0    33.5
  38    0:00   24.5    72    6.5   276     10.7   826.3    0.00       0    33.5
  38    0:10   24.4    72    5.8   276      8.9   826.3    0.00       0    33.5
  38    0:20   24.5    72    5.7   277     10.1   826.3    0.00       0    33.5
  38    0:30   24.6    72    5.4   275      8.6   826.3    0.00       0    33.4
  38    0:40   24.6    71    6.2   275      9.8   826.2    0.00       0    33.4
  38    0:50   24.6    71    5.8   276      9.1   826.3    0.00       0    33.4
  38    1:00   24.6    71    6.4   280      9.4   826.4    0.00       0    33.4
  38    1:10   24.3    72    7.2   281     11.0   826.4    0.00       0    33.4
  38    1:20   23.7    73    7.6   286     11.2   826.5    0.00       0    33.4
  38    1:30   22.9    74    6.9   285     11.0   826.5    0.00       0    33.5
  38    1:40   22.5    75    7.1   277     10.2   826.6    0.00       0    33.5
  38    1:50   22.9    74    6.5   273     10.6   826.8    0.00       0    33.5
  38    2:00   23.6    74    8.6   278     15.8   826.8    0.00       0    33.5
  38    2:10   23.7    74    7.3   275     12.0   826.9    0.00       0    33.4
  38    2:20   23.9    74    6.0   271      9.1   826.8    0.00       0    33.4
  38    2:30   24.3    74    6.7   274     11.2   826.6    0.00       0    33.4
  38    2:40   24.2    75    6.3   275      9.3   826.6    0.00       0    33.4
  38    2:50   24.1    75    5.9   272      9.3   826.5    0.00       0    33.4
  38    3:00   24.7    74    6.3   274      9.7   826.5    0.00       0    33.4
  38    3:10   24.8    74    6.5   278      9.3   826.5    0.00       0    33.4
  38    3:20   24.3    74    6.2   284      8.7   826.5    0.00       0    33.4
  38    3:30   23.4    76    7.2   280     11.4   826.4    0.00       0    33.4
  38    3:40   22.5    77    6.8   285     10.8   826.4    0.00       0    33.4
  38    3:50   22.1    78    6.3   281      9.3   826.4    0.00       0    33.4
  38    4:00   22.0    78    6.3   276      9.7   826.4    0.00       0    33.4
  38    4:10   22.0    78    6.5   272     10.6   826.4    0.00       0    33.4
  38    4:20   22.8    77    6.9   276     11.4   826.3    0.00       0    33.4
  38    4:30   23.4    75    7.6   278     12.2   826.4    0.00       0    33.4
  38    4:40   23.9    74    7.0   278     10.4   826.4    0.00       0    33.4
  38    4:50   24.2    74    5.8   274      8.8   826.4    0.00       0    33.4
  38    5:00   24.2    73    5.3   279      8.2   826.4    0.00       0    33.4
  38    5:10   23.7    74    6.0   274      8.8   826.4    0.00       0    33.4
  38    5:20   23.4    75    6.1   283      9.2   826.5    0.00       0    33.4
  38    5:30   22.9    76    6.5   279      9.9   826.6    0.00       0    33.4
  38    5:40   23.0    75    6.6   274     10.5   826.7    0.00       0    33.4
  38    5:50   22.7    75    6.1   281     10.3   826.9    0.00       0    33.4
  38    6:00   22.3    76    7.1   280     10.4   827.0    0.00       0    33.4
  38    6:10   22.1    76    7.1   275     12.3   827.2    0.00       0    33.4
  38    6:20   22.6    76    6.9   276     11.0   827.4    0.00       0    33.4
  38    6:30   23.2    75    7.0   272     11.7   827.4    0.00       0    33.4
  38    6:40   23.7    74    6.5   271     10.7   827.4    0.00       5    33.3
  38    6:50   23.8    73    5.5   273     10.6   827.5    0.00      17    33.3
  38    7:00   24.2    72    5.6   273      9.3   827.6    0.00      42    33.3
  38    7:10   24.7    71    5.4   280      9.3   827.7    0.00      76    33.3
  38    7:20   24.5    71    5.7   290     10.0   827.8    0.00     117    33.4
  38    7:30   24.6    70    6.1   286      9.9   827.8    0.00     157    33.4
  38    7:40   25.4    69    5.6   288      8.6   827.9    0.00     192    33.4
  38    7:50   25.8    67    4.8   292      7.9   828.0    0.00     225    33.5
  38    8:00   26.6    66    4.4   288      8.3   828.1    0.00     258    33.5
  38    8:10   27.5    64    3.9   306      6.8   828.2    0.00     292    33.5
  38    8:20   28.6    62    2.7   298      4.4   828.3    0.00     327    33.5
  38    8:30   29.6    60    2.6   316      4.2   828.3    0.00     361    33.6
  38    8:40   30.5    58    2.5   315      4.2   828.3    0.00     395    33.6
  38    8:50   30.8    58    3.1   310      7.2   828.3    0.00     426    33.6
  38    9:00   30.1    60    4.6   323      7.2   828.4    0.00     456    33.6
  38    9:10   30.1    60    4.0   325      7.1   828.3    0.00     484    33.6
  38    9:20   31.6    58    3.0   309      6.2   828.3    0.00     513    33.6
  38    9:30   32.0    57    3.4   316      5.7   828.4    0.00     540    33.7
  38    9:40   32.2    57    4.4   311      6.9   828.4    0.00     564    33.6
  38    9:50   31.8    59    5.6   295      8.8   828.4    0.00     588    33.6
  38   10:00   31.7    58    6.2   287      8.8   828.3    0.00     609    33.7
  38   10:10   32.4    58    4.9   298      8.8   828.4    0.00     628    33.7
  38   10:20   33.2    56    4.5   309      7.6   828.3    0.00     648    33.7
  38   10:30   33.9    55    4.1   307      7.0   828.3    0.00     665    33.7
  38   10:40   35.1    52    4.2   297      7.7   828.3    0.00     680    33.7
  38   10:50   34.8    53    6.2   299      9.6   828.2    0.00     694    33.7
  38   11:00   35.0    54    6.4   302      9.2   828.2    0.00     705    33.7
  38   11:10   35.0    54    8.2   304     13.2   828.2    0.00     714    33.7
  38   11:20   34.8    54    9.0   305     14.1   828.0    0.00     722    33.7
  38   11:30   34.7    54    9.7   306     15.1   827.9    0.00     726    33.7
  38   11:40   35.1    54    9.0   303     15.0   827.9    0.00     731    33.7
  38   11:50   34.9    54    9.6   300     15.1   827.8    0.00     732    33.7
  38   12:00   35.0    55    9.4   304     15.3   827.7    0.00     731    33.6
  38   12:10   35.5    54    9.1   303     13.6   827.5    0.00     728    33.6
  38   12:20   36.3    53    7.4   300     11.1   827.5    0.00     727    33.6
  38   12:30   36.4    52    8.7   297     13.6   827.4    0.00     721    33.6
  38   12:40   36.6    51    8.0   298     13.4   827.2    0.00     713    33.6
  38   12:50   37.2    51    7.9   301     12.9   827.1    0.00     704    33.6
  38   13:00   37.9    50    7.3   297     11.9   827.0    0.00     693    33.6
  38   13:10   38.5    48    6.8   302     10.9   826.9    0.00     680    33.6
  38   13:20   39.2    47    6.9   304     11.5   826.7    0.00     665    33.6
  38   13:30   39.5    46    7.5   306     13.2   826.7    0.00     647    33.6
  38   13:40   39.4    48    6.8   303     11.2   826.8    0.00     628    33.6
  38   13:50   39.0    48    7.8   304     13.2   826.7    0.00     607    33.6
  38   14:00   39.0    50    6.8   301      9.9   826.6    0.00     586    33.6
  38   14:10   39.0    50    7.3   301     10.9   826.7    0.00     562    33.6
  38   14:20   38.9    48    7.6   300     11.8   826.7    0.00     537    33.6
  38   14:30   38.9    48    6.4   297     10.2   826.7    0.00     511    33.7
  38   14:40   38.9    50    5.8   298      9.8   826.7    0.00     483    33.6
  38   14:50   39.2    48    4.4   298      7.0   826.7    0.00     454    33.6
  38   15:00   39.2    49    5.1   296      8.1   826.7    0.00     424    33.6
  38   15:10   39.0    51    4.8   298      7.5   826.6    0.00     391    33.6
  38   15:20   38.9    51    4.7   288      8.7   826.6    0.00     358    33.6
  38   15:30   38.8    50    4.2   288      8.7   826.6    0.00     325    33.6
  38   15:40   38.7    50    4.5   295      7.7   826.6    0.00     290    33.6
  38   15:50   38.6    49    4.3   281      7.3   826.7    0.00     254    33.6
  38   16:00   38.2    51    4.0   274      6.1   826.7    0.00     220    33.6
  38   16:10   37.9    51    3.0   275      5.2   826.6    0.00     185    33.6
  38   16:20   37.9    49    3.6   267      5.6   826.6    0.00     146    33.6
  38   16:30   37.4    48    2.3   263      4.7   826.6    0.00      86    33.6
  38   16:40   36.2    50    2.5   262      4.5   826.6    0.00      15    33.6
  38   16:50   35.4    53    3.2   268      4.9   826.6    0.00      12    33.6
  38   17:00   34.8    55    4.3   277      6.4   826.7    0.00       9    33.6
  38   17:10   34.1    57    5.2   274      7.7   826.7    0.00       4    33.5
  38   17:20   33.6    57    5.7   278      8.6   826.8    0.00       0    33.5
  38   17:30   33.7    56    5.5   280      8.1   826.9    0.00       0    33.5
  38   17:40   33.5    56    4.9   278      9.7   826.7    0.00       0    33.5
  38   17:50   32.5    57    4.6   270      7.7   826.7    0.00       0    33.5
  38   18:00   32.5    57    5.5   269     10.3   826.8    0.00       0    33.5
  38   18:10   32.8    56    5.4   269      9.1   826.8    0.00       0    33.5
  38   18:20   32.6    56    3.7   266      8.9   826.8    0.00       0    33.4
  38   18:30   32.5    55    2.8   264      6.2   826.8    0.00       0    33.5
  38   18:40   32.1    56    2.3   262      5.7   826.9    0.00       0    33.5
  38   18:50   31.1    57    2.3   250      8.3   826.9    0.00       0    33.5
  38   19:00   32.1    54    3.5   264      7.8   826.9    0.00       0    33.5
  38   19:10   31.7    55    3.3   271      5.7   826.8    0.00       0    33.5
  38   19:20   31.2    56    3.8   272      6.0   826.8    0.00       0    33.5
  38   19:30   31.2    55    4.7   270      8.1   826.7    0.00       0    33.4
  38   19:40   31.0    56    5.7   275      8.9   826.8    0.00       0    33.5
  38   19:50   31.0    56    6.2   272      9.5   827.0    0.00       0    33.4
  38   20:00   31.0    57    6.7   276     11.9   827.0    0.00       0    33.4
  38   20:10   30.8    58    6.9   276     13.5   827.0    0.00       0    33.4
  38   20:20   30.5    58    7.7   277     12.1   827.0    0.00       0    33.5
  38   20:30   30.2    59    7.6   277     12.1   827.1    0.00       0    33.5
  38   20:40   30.1    59    6.1   271     10.6   827.1    0.00       0    33.5
  38   20:50   30.4    58    3.9   267      7.7   827.0    0.00       0    33.5
  38   21:00   30.6    57    4.1   269      6.9   827.0    0.00       0    33.5
  38   21:10   30.8    56    3.6   272      7.7   827.0    0.00       0    33.5
  38   21:20   30.9    55    3.6   275      7.5   827.1    0.00       0    33.5
  38   21:30   30.6    56    3.0   284      5.0   827.2    0.00       0    33.4
  38   21:40   29.0    59    2.7   267      4.1   827.2    0.00       0    33.5
  38   21:50   28.3    61    1.9   253      4.2   827.1    0.00       0    33.5
  38   22:00   29.4    59    3.0   262      7.7   826.9    0.00       0    33.5

Return to Pioche, Nevada graphs page.


Western Regional Climate Center,wrcc@dri.edu